createdAt,value
2018-12-30T00:01:52.046Z,14.50
2018-12-30T00:04:21.993Z,20.70
2018-12-30T00:06:51.636Z,13.77
2018-12-30T00:09:21.243Z,18.40
2018-12-30T00:11:50.906Z,17.43
2018-12-30T00:14:20.532Z,14.78
2018-12-30T00:16:49.888Z,17.02
2018-12-30T00:19:19.138Z,15.70
2018-12-30T00:21:48.667Z,13.50
2018-12-30T00:24:18.653Z,17.47
2018-12-30T00:26:47.847Z,16.30
2018-12-30T00:29:19.002Z,23.47
2018-12-30T00:31:48.290Z,16.70
2018-12-30T00:34:17.474Z,17.77
2018-12-30T00:36:47.030Z,15.17
2018-12-30T00:39:17.000Z,12.93
2018-12-30T00:41:46.230Z,17.43
2018-12-30T00:44:15.967Z,17.83
2018-12-30T00:46:45.375Z,21.07
2018-12-30T00:49:14.618Z,15.50
2018-12-30T00:51:44.279Z,14.73
2018-12-30T00:54:13.928Z,16.73
2018-12-30T00:56:43.576Z,16.93
2018-12-30T00:59:12.900Z,18.00
2018-12-30T01:01:42.156Z,14.07
2018-12-30T01:04:14.376Z,22.00
2018-12-30T01:06:44.045Z,20.97
2018-12-30T01:09:13.297Z,19.92
2018-12-30T01:11:42.546Z,18.37
2018-12-30T01:14:12.232Z,19.60
2018-12-30T01:16:41.575Z,17.73
2018-12-30T01:19:11.504Z,14.00
2018-12-30T01:21:41.134Z,22.13
2018-12-30T01:24:10.413Z,17.97
2018-12-30T01:26:39.780Z,19.40
2018-12-30T01:29:09.178Z,10.33
2018-12-30T01:31:38.502Z,9.43
2018-12-30T01:34:07.840Z,9.23
2018-12-30T01:36:37.210Z,15.03
2018-12-30T01:39:08.346Z,11.90
2018-12-30T01:41:37.647Z,9.53
2018-12-30T01:44:06.843Z,9.30
2018-12-30T01:46:36.539Z,9.87
2018-12-30T01:49:06.126Z,15.10
2018-12-30T01:51:35.308Z,13.57
2018-12-30T01:54:04.940Z,8.10
2018-12-30T01:56:34.364Z,7.80
2018-12-30T01:59:03.664Z,10.83
2018-12-30T02:01:32.963Z,16.17
2018-12-30T02:04:03.028Z,11.33
2018-12-30T02:06:32.390Z,14.98
2018-12-30T02:09:05.904Z,8.27
2018-12-30T02:11:35.192Z,15.10
2018-12-30T02:14:04.527Z,10.53
2018-12-30T02:16:33.919Z,6.73
2018-12-30T02:19:03.151Z,16.15
2018-12-30T02:21:32.747Z,13.50
2018-12-30T02:24:01.992Z,11.78
2018-12-30T02:26:31.169Z,9.47
2018-12-30T02:29:00.425Z,12.00
2018-12-30T02:31:29.981Z,4.27
2018-12-30T02:33:59.445Z,8.50
2018-12-30T02:36:28.683Z,8.77
2018-12-30T02:38:58.647Z,9.90
2018-12-30T02:41:27.983Z,8.07
2018-12-30T02:43:57.765Z,16.05
2018-12-30T02:46:27.431Z,13.63
2018-12-30T02:48:57.035Z,17.00
2018-12-30T02:51:26.175Z,8.80
2018-12-30T02:53:55.428Z,5.92
2018-12-30T02:56:24.871Z,8.50
2018-12-30T02:58:54.052Z,9.97
2018-12-30T03:01:23.217Z,12.70
2018-12-30T03:03:52.509Z,8.83
2018-12-30T03:06:21.717Z,5.03
2018-12-30T03:08:50.987Z,11.87
2018-12-30T03:11:20.194Z,10.43
2018-12-30T03:13:49.445Z,6.80
2018-12-30T03:16:18.688Z,13.40
2018-12-30T03:18:48.246Z,9.65
2018-12-30T03:21:17.892Z,7.87
2018-12-30T03:23:47.193Z,7.07
2018-12-30T03:26:16.355Z,8.80
2018-12-30T03:28:45.494Z,6.33
2018-12-30T03:31:14.738Z,10.43
2018-12-30T03:33:44.578Z,6.40
2018-12-30T03:36:13.900Z,5.93
2018-12-30T03:38:43.472Z,4.20
2018-12-30T03:41:13.069Z,15.43
2018-12-30T03:43:42.287Z,8.63
2018-12-30T03:46:11.543Z,10.90
2018-12-30T03:48:40.731Z,9.67
2018-12-30T03:51:10.007Z,13.03
2018-12-30T03:53:39.236Z,6.05
2018-12-30T03:56:08.845Z,7.07
2018-12-30T03:58:38.074Z,10.43
2018-12-30T04:01:07.339Z,7.93
2018-12-30T04:03:37.173Z,4.53
2018-12-30T04:06:06.433Z,11.03
2018-12-30T04:08:35.960Z,12.13
2018-12-30T04:11:05.219Z,8.10
2018-12-30T04:13:34.954Z,5.27
2018-12-30T04:16:04.231Z,7.70
2018-12-30T04:18:33.442Z,12.30
2018-12-30T04:21:02.994Z,8.27
2018-12-30T04:23:32.175Z,7.67
2018-12-30T04:26:01.489Z,16.53
2018-12-30T04:28:31.298Z,6.40
2018-12-30T04:31:00.484Z,6.93
2018-12-30T04:33:30.658Z,7.90
2018-12-30T04:35:59.926Z,9.13
2018-12-30T04:38:29.172Z,8.90
2018-12-30T04:40:58.354Z,10.23
2018-12-30T04:43:27.552Z,6.50
2018-12-30T04:45:56.752Z,10.00
2018-12-30T04:48:26.012Z,8.40
2018-12-30T04:50:55.345Z,10.90
2018-12-30T04:53:24.600Z,13.03
2018-12-30T04:55:53.771Z,9.37
2018-12-30T04:58:23.022Z,11.93
2018-12-30T05:01:11.431Z,10.83
2018-12-30T05:03:40.623Z,8.85
2018-12-30T05:06:09.848Z,7.70
2018-12-30T05:08:39.118Z,7.10
2018-12-30T05:11:08.704Z,10.60
2018-12-30T05:13:37.880Z,16.97
2018-12-30T05:16:07.139Z,13.22
2018-12-30T05:18:36.285Z,8.40
2018-12-30T05:21:05.858Z,12.00
2018-12-30T05:23:35.207Z,8.05
2018-12-30T05:26:04.699Z,7.05
2018-12-30T05:28:34.265Z,8.23
2018-12-30T05:31:03.824Z,8.80
2018-12-30T05:33:32.958Z,7.40
2018-12-30T05:36:02.209Z,9.07
2018-12-30T05:38:31.815Z,8.15
2018-12-30T05:41:01.040Z,8.83
2018-12-30T05:43:30.244Z,11.90
2018-12-30T05:45:59.463Z,13.65
2018-12-30T05:48:28.754Z,10.47
2018-12-30T05:50:57.903Z,5.47
2018-12-30T05:53:27.303Z,5.33
2018-12-30T05:55:56.604Z,12.80
2018-12-30T05:58:26.184Z,13.87
2018-12-30T06:00:55.397Z,7.75
2018-12-30T06:03:24.654Z,4.73
2018-12-30T06:05:53.904Z,7.80
2018-12-30T06:08:23.093Z,9.80
2018-12-30T06:10:52.299Z,5.05
2018-12-30T06:13:21.555Z,10.68
2018-12-30T06:15:50.783Z,11.40
2018-12-30T06:18:20.304Z,10.10
2018-12-30T06:20:49.603Z,6.28
2018-12-30T06:23:19.254Z,8.33
2018-12-30T06:25:48.486Z,7.67
2018-12-30T06:28:17.732Z,8.50
2018-12-30T06:30:47.227Z,6.83
2018-12-30T06:33:16.596Z,12.30
2018-12-30T06:35:46.125Z,7.33
2018-12-30T06:38:15.343Z,6.73
2018-12-30T06:40:44.881Z,7.95
2018-12-30T06:43:14.681Z,4.97
2018-12-30T06:45:44.301Z,7.20
2018-12-30T06:48:13.971Z,11.60
2018-12-30T06:50:43.405Z,13.40
2018-12-30T06:53:12.938Z,6.33
2018-12-30T06:55:42.209Z,7.27
2018-12-30T06:58:11.459Z,8.70
2018-12-30T07:00:41.084Z,8.30
2018-12-30T07:03:10.271Z,11.50
2018-12-30T07:05:39.442Z,13.57
2018-12-30T07:08:09.346Z,6.23
2018-12-30T07:10:38.823Z,10.23
2018-12-30T07:13:08.087Z,7.10
2018-12-30T07:15:37.338Z,7.27
2018-12-30T07:18:06.871Z,9.93
2018-12-30T07:20:44.796Z,9.83
2018-12-30T07:23:14.012Z,4.15
2018-12-30T07:25:43.293Z,7.25
2018-12-30T07:28:12.491Z,10.10
2018-12-30T07:30:42.079Z,5.40
2018-12-30T07:33:11.322Z,9.38
2018-12-30T07:35:41.416Z,8.95
2018-12-30T07:38:12.903Z,7.80
2018-12-30T07:40:42.156Z,11.60
2018-12-30T07:43:11.399Z,7.87
2018-12-30T07:45:40.664Z,6.57
2018-12-30T07:48:09.925Z,8.10
2018-12-30T07:50:39.511Z,5.10
2018-12-30T07:53:13.729Z,11.78
2018-12-30T07:55:40.254Z,6.70
2018-12-30T07:58:09.503Z,13.33
2018-12-30T08:00:38.696Z,7.53
2018-12-30T08:03:07.894Z,7.20
2018-12-30T08:05:37.157Z,10.00
2018-12-30T08:08:06.475Z,6.13
2018-12-30T08:10:36.108Z,5.40
2018-12-30T08:13:06.399Z,13.08
2018-12-30T08:15:35.703Z,7.90
2018-12-30T08:18:05.037Z,4.23
2018-12-30T08:20:34.271Z,12.40
2018-12-30T08:23:03.510Z,7.23
2018-12-30T08:25:32.743Z,9.90
2018-12-30T08:28:01.972Z,8.87
2018-12-30T08:30:31.198Z,15.58
2018-12-30T08:33:00.506Z,9.03
2018-12-30T08:35:29.747Z,6.53
2018-12-30T08:37:59.030Z,6.10
2018-12-30T08:40:28.711Z,9.45
2018-12-30T08:42:57.946Z,9.10
2018-12-30T08:45:27.255Z,7.90
2018-12-30T08:47:56.535Z,7.67
2018-12-30T08:50:29.401Z,13.03
2018-12-30T08:52:58.699Z,8.83
2018-12-30T08:55:28.210Z,5.87
2018-12-30T08:57:58.590Z,9.00
2018-12-30T09:00:29.248Z,6.70
2018-12-30T09:02:58.780Z,14.13
2018-12-30T09:05:28.207Z,11.90
2018-12-30T09:07:57.596Z,12.27
2018-12-30T09:10:26.841Z,11.67
2018-12-30T09:12:58.798Z,4.97
2018-12-30T09:15:28.049Z,7.53
2018-12-30T09:17:57.210Z,7.20
2018-12-30T09:20:26.453Z,12.90
2018-12-30T09:22:55.639Z,11.37
2018-12-30T09:25:28.867Z,15.60
2018-12-30T09:27:58.434Z,11.67
2018-12-30T09:30:27.970Z,9.87
2018-12-30T09:32:57.276Z,9.63
2018-12-30T09:35:29.151Z,6.93
2018-12-30T09:37:59.018Z,9.63
2018-12-30T09:40:29.162Z,9.63
2018-12-30T09:42:58.375Z,8.88
2018-12-30T09:45:28.493Z,9.30
2018-12-30T09:47:57.818Z,7.13
2018-12-30T09:50:27.097Z,12.43
2018-12-30T09:52:57.436Z,8.23
2018-12-30T09:55:26.757Z,8.60
2018-12-30T09:57:56.488Z,16.50
2018-12-30T10:00:25.859Z,22.37
2018-12-30T10:02:55.164Z,10.70
2018-12-30T10:05:24.470Z,11.93
2018-12-30T10:07:54.024Z,6.07
2018-12-30T10:10:23.613Z,14.20
2018-12-30T10:12:52.944Z,10.53
2018-12-30T10:15:22.195Z,8.33
2018-12-30T10:17:51.424Z,13.10
2018-12-30T10:20:20.624Z,8.80
2018-12-30T10:22:49.925Z,8.90
2018-12-30T10:25:19.461Z,10.93
2018-12-30T10:27:48.716Z,15.90
2018-12-30T10:30:17.928Z,13.23
2018-12-30T10:32:47.213Z,10.43
2018-12-30T10:35:16.742Z,11.20
2018-12-30T10:37:46.045Z,11.00
2018-12-30T10:40:15.278Z,9.10
2018-12-30T10:42:47.068Z,10.67
2018-12-30T10:45:16.340Z,11.78
2018-12-30T10:47:47.166Z,11.23
2018-12-30T10:50:16.848Z,12.73
2018-12-30T10:52:46.350Z,12.30
2018-12-30T10:55:15.614Z,16.50
2018-12-30T10:57:44.897Z,11.80
2018-12-30T11:00:14.162Z,17.07
2018-12-30T11:02:43.393Z,9.90
2018-12-30T11:05:12.919Z,16.20
2018-12-30T11:07:42.565Z,11.67
2018-12-30T11:10:11.921Z,13.73
2018-12-30T11:12:41.171Z,12.90
2018-12-30T11:15:10.438Z,17.03
2018-12-30T11:17:39.986Z,14.00
2018-12-30T11:20:09.327Z,14.25
2018-12-30T11:22:38.616Z,17.60
2018-12-30T11:25:07.911Z,12.80
2018-12-30T11:27:37.903Z,14.40
2018-12-30T11:30:09.323Z,18.12
2018-12-30T11:32:38.621Z,16.73
2018-12-30T11:35:08.842Z,22.87
2018-12-30T11:37:38.812Z,12.20
2018-12-30T11:40:08.171Z,20.52
2018-12-30T11:42:37.420Z,11.63
2018-12-30T11:45:07.183Z,10.88
2018-12-30T11:47:36.483Z,18.67
2018-12-30T11:50:06.520Z,15.90
2018-12-30T11:52:36.427Z,12.85
2018-12-30T11:55:05.784Z,12.10
2018-12-30T11:57:35.313Z,13.93
2018-12-30T12:00:05.231Z,15.80
2018-12-30T12:02:35.251Z,18.13
2018-12-30T12:05:04.580Z,12.63
2018-12-30T12:07:33.916Z,16.27
2018-12-30T12:10:03.333Z,21.47
2018-12-30T12:12:33.062Z,17.75
2018-12-30T12:15:02.379Z,14.33
2018-12-30T12:17:31.673Z,12.23
2018-12-30T12:20:00.941Z,11.63
2018-12-30T12:22:31.236Z,11.80
2018-12-30T12:25:00.408Z,13.48
2018-12-30T12:27:30.085Z,13.37
2018-12-30T12:29:59.886Z,10.65
2018-12-30T12:32:29.452Z,17.30
2018-12-30T12:34:59.556Z,15.30
2018-12-30T12:37:30.112Z,12.37
2018-12-30T12:39:59.512Z,13.13
2018-12-30T12:42:28.771Z,13.17
2018-12-30T12:44:58.035Z,14.03
2018-12-30T12:47:27.342Z,15.33
2018-12-30T12:49:56.870Z,13.70
2018-12-30T12:52:26.143Z,10.43
2018-12-30T12:54:55.480Z,11.70
2018-12-30T12:57:24.822Z,13.80
2018-12-30T12:59:54.184Z,22.23
2018-12-30T13:02:23.573Z,11.33
2018-12-30T13:04:52.986Z,13.47
2018-12-30T13:07:22.272Z,18.97
2018-12-30T13:09:51.572Z,21.60
2018-12-30T13:12:20.943Z,13.97
2018-12-30T13:14:50.306Z,13.60
2018-12-30T13:17:19.590Z,15.63
2018-12-30T13:19:48.854Z,14.50
2018-12-30T13:22:18.395Z,11.20
2018-12-30T13:24:47.655Z,14.30
2018-12-30T13:27:17.118Z,11.77
2018-12-30T13:29:46.779Z,11.80
2018-12-30T13:32:16.421Z,12.97
2018-12-30T13:34:45.693Z,12.10
2018-12-30T13:37:14.995Z,10.90
2018-12-30T13:39:44.230Z,13.60
2018-12-30T13:42:13.576Z,12.70
2018-12-30T13:44:42.865Z,10.90
2018-12-30T13:47:12.133Z,10.23
2018-12-30T13:49:41.371Z,6.23
2018-12-30T13:52:10.614Z,16.62
2018-12-30T13:54:47.419Z,16.97
2018-12-30T13:57:10.907Z,8.50
2018-12-30T13:59:40.175Z,14.35
2018-12-30T14:02:09.375Z,10.97
2018-12-30T14:04:38.636Z,9.30
2018-12-30T14:07:08.036Z,6.43
2018-12-30T14:09:38.162Z,6.85
2018-12-30T14:12:07.621Z,11.97
2018-12-30T14:14:37.224Z,17.30
2018-12-30T14:17:06.946Z,12.97
2018-12-30T14:19:36.438Z,10.32
2018-12-30T14:22:06.055Z,15.07
2018-12-30T14:24:35.352Z,6.93
2018-12-30T14:27:06.221Z,12.77
2018-12-30T14:29:35.459Z,14.40
2018-12-30T14:32:04.948Z,8.30
2018-12-30T14:34:34.272Z,13.62
2018-12-30T14:37:03.568Z,10.83
2018-12-30T14:39:32.815Z,11.95
2018-12-30T14:42:02.045Z,10.57
2018-12-30T14:44:31.260Z,8.00
2018-12-30T14:47:00.550Z,10.47
2018-12-30T14:49:30.234Z,8.13
2018-12-30T14:52:01.458Z,13.73
2018-12-30T14:54:30.514Z,7.13
2018-12-30T14:56:59.663Z,10.73
2018-12-30T14:59:28.978Z,8.67
2018-12-30T15:01:58.278Z,9.03
2018-12-30T15:04:27.873Z,6.03
2018-12-30T15:06:57.203Z,10.88
2018-12-30T15:09:26.532Z,9.73
2018-12-30T15:11:56.552Z,8.27
2018-12-30T15:14:26.162Z,6.17
2018-12-30T15:16:55.482Z,8.93
2018-12-30T15:19:25.091Z,7.35
2018-12-30T15:21:54.376Z,8.25
2018-12-30T15:24:23.631Z,11.00
2018-12-30T15:26:52.892Z,8.18
2018-12-30T15:29:22.507Z,15.97
2018-12-30T15:31:52.098Z,8.97
2018-12-30T15:34:21.357Z,11.20
2018-12-30T15:36:50.930Z,14.83
2018-12-30T15:39:20.085Z,7.70
2018-12-30T15:41:50.266Z,9.60
2018-12-30T15:44:19.520Z,9.80
2018-12-30T15:46:48.838Z,10.98
2018-12-30T15:49:20.807Z,8.60
2018-12-30T15:51:50.175Z,17.20
2018-12-30T15:54:19.712Z,6.50
2018-12-30T15:56:48.995Z,7.93
2018-12-30T15:59:18.301Z,12.00
2018-12-30T16:01:47.643Z,7.93
2018-12-30T16:04:17.128Z,10.23
2018-12-30T16:06:46.397Z,5.10
2018-12-30T16:09:16.300Z,11.00
2018-12-30T16:11:45.549Z,7.03
2018-12-30T16:14:14.863Z,7.45
2018-12-30T16:16:44.052Z,8.83
2018-12-30T16:19:13.612Z,9.73
2018-12-30T16:21:42.822Z,12.60
2018-12-30T16:24:12.454Z,9.53
2018-12-30T16:26:42.170Z,10.32
2018-12-30T16:29:11.747Z,7.80
2018-12-30T16:31:41.839Z,7.50
2018-12-30T16:34:11.188Z,7.60
2018-12-30T16:36:40.753Z,13.43
2018-12-30T16:39:10.003Z,11.63
2018-12-30T16:41:39.352Z,14.75
2018-12-30T16:44:08.843Z,6.17
2018-12-30T16:46:38.122Z,6.47
2018-12-30T16:49:07.476Z,14.03
2018-12-30T16:51:37.111Z,8.50
2018-12-30T16:54:06.476Z,11.40
2018-12-30T16:56:35.699Z,16.62
2018-12-30T16:59:05.447Z,9.13
2018-12-30T17:01:34.771Z,11.90
2018-12-30T17:04:04.776Z,12.10
2018-12-30T17:06:34.213Z,14.07
2018-12-30T17:09:04.827Z,16.60
2018-12-30T17:11:34.114Z,15.00
2018-12-30T17:14:03.716Z,10.03
2018-12-30T17:16:33.592Z,9.70
2018-12-30T17:19:02.823Z,8.97
2018-12-30T17:21:32.096Z,9.00
2018-12-30T17:24:01.573Z,12.47
2018-12-30T17:26:31.175Z,13.37
2018-12-30T17:29:01.097Z,14.03
2018-12-30T17:31:30.410Z,12.83
2018-12-30T17:33:59.852Z,11.73
2018-12-30T17:36:29.552Z,11.85
2018-12-30T17:39:00.390Z,13.77
2018-12-30T17:41:29.772Z,11.37
2018-12-30T17:43:59.001Z,19.43
2018-12-30T17:46:28.401Z,13.50
2018-12-30T17:48:57.747Z,17.57
2018-12-30T17:51:27.028Z,15.30
2018-12-30T17:53:56.375Z,15.50
2018-12-30T17:56:25.595Z,9.30
2018-12-30T17:58:54.935Z,10.20
2018-12-30T18:01:24.227Z,14.65
2018-12-30T18:03:53.777Z,9.43
2018-12-30T18:06:22.944Z,11.73
2018-12-30T18:08:53.174Z,11.17
2018-12-30T18:11:22.774Z,9.53
2018-12-30T18:13:52.052Z,11.90
2018-12-30T18:16:21.600Z,14.53
2018-12-30T18:18:50.807Z,16.30
2018-12-30T18:21:20.131Z,13.60
2018-12-30T18:23:49.488Z,21.50
2018-12-30T18:26:18.801Z,17.33
2018-12-30T18:28:48.028Z,16.60
2018-12-30T18:31:17.687Z,14.55
2018-12-30T18:33:46.903Z,18.50
2018-12-30T18:36:16.239Z,18.45
2018-12-30T18:38:45.511Z,17.47
2018-12-30T18:41:14.764Z,19.03
2018-12-30T18:43:44.055Z,14.87
2018-12-30T18:46:13.406Z,12.33
2018-12-30T18:48:42.773Z,15.77
2018-12-30T18:51:12.096Z,14.40
2018-12-30T18:53:41.483Z,15.73
2018-12-30T18:56:10.735Z,13.03
2018-12-30T18:58:40.028Z,15.30
2018-12-30T19:01:09.254Z,14.50
2018-12-30T19:03:40.125Z,20.50
2018-12-30T19:06:09.354Z,14.47
2018-12-30T19:08:39.012Z,13.40
2018-12-30T19:11:08.291Z,20.15
2018-12-30T19:13:37.488Z,15.73
2018-12-30T19:16:06.793Z,15.80
2018-12-30T19:18:37.845Z,17.17
2018-12-30T19:21:07.258Z,11.57
2018-12-30T19:23:36.559Z,15.48
2018-12-30T19:26:05.835Z,19.60
2018-12-30T19:28:35.027Z,19.53
2018-12-30T19:31:10.455Z,17.65
2018-12-30T19:33:41.607Z,9.87
2018-12-30T19:36:11.092Z,15.00
2018-12-30T19:38:42.689Z,10.30
2018-12-30T19:41:12.241Z,16.33
2018-12-30T19:43:41.664Z,13.67
2018-12-30T19:46:12.469Z,10.50
2018-12-30T19:48:41.668Z,10.50
2018-12-30T19:51:10.856Z,14.23
2018-12-30T19:53:40.099Z,15.87
2018-12-30T19:56:09.950Z,13.50
2018-12-30T19:58:39.243Z,12.58
2018-12-30T20:01:08.517Z,14.10
2018-12-30T20:03:37.712Z,12.93
2018-12-30T20:06:07.269Z,14.23
2018-12-30T20:08:36.554Z,17.20
2018-12-30T20:11:06.069Z,14.27
2018-12-30T20:13:35.639Z,13.35
2018-12-30T20:16:04.963Z,14.00
2018-12-30T20:18:35.231Z,13.40
2018-12-30T20:21:04.447Z,14.17
2018-12-30T20:23:34.359Z,16.30
2018-12-30T20:26:03.996Z,19.27
2018-12-30T20:28:33.320Z,15.13
2018-12-30T20:31:03.252Z,18.53
2018-12-30T20:33:32.519Z,16.10
2018-12-30T20:36:01.816Z,19.93
2018-12-30T20:38:31.491Z,15.40
2018-12-30T20:41:00.784Z,19.03
2018-12-30T20:43:30.076Z,17.40
2018-12-30T20:45:59.436Z,11.87
2018-12-30T20:48:29.340Z,11.90
2018-12-30T20:50:58.683Z,15.33
2018-12-30T20:53:27.926Z,21.37
2018-12-30T20:55:57.560Z,15.33
2018-12-30T20:58:26.839Z,18.40
2018-12-30T21:00:56.049Z,21.13
2018-12-30T21:03:25.490Z,20.82
2018-12-30T21:05:54.775Z,18.60
2018-12-30T21:08:23.961Z,16.60
2018-12-30T21:10:53.476Z,22.70
2018-12-30T21:13:22.816Z,22.20
2018-12-30T21:15:52.129Z,18.73
2018-12-30T21:18:21.396Z,24.73
2018-12-30T21:20:50.654Z,17.13
2018-12-30T21:23:20.027Z,30.13
2018-12-30T21:25:49.578Z,24.15
2018-12-30T21:28:19.290Z,21.90
2018-12-30T21:30:48.508Z,24.93
2018-12-30T21:33:17.740Z,28.93
2018-12-30T21:35:47.072Z,20.40
2018-12-30T21:38:16.295Z,19.77
2018-12-30T21:40:45.449Z,24.67
2018-12-30T21:43:14.757Z,24.65
2018-12-30T21:45:44.326Z,22.65
2018-12-30T21:48:13.912Z,19.00
2018-12-30T21:50:43.125Z,23.07
2018-12-30T21:53:12.598Z,25.37
2018-12-30T21:55:42.567Z,20.33
2018-12-30T21:58:12.278Z,31.23
2018-12-30T22:00:41.559Z,31.87
2018-12-30T22:03:10.818Z,22.27
2018-12-30T22:05:41.224Z,24.47
2018-12-30T22:08:10.521Z,27.00
2018-12-30T22:10:39.837Z,30.92
2018-12-30T22:13:09.532Z,21.97
2018-12-30T22:15:39.232Z,20.20
2018-12-30T22:18:09.043Z,33.43
2018-12-30T22:20:38.367Z,23.37
2018-12-30T22:23:07.651Z,23.57
2018-12-30T22:25:37.484Z,36.73
2018-12-30T22:28:06.662Z,26.03
2018-12-30T22:30:36.192Z,30.27
2018-12-30T22:33:05.445Z,24.37
2018-12-30T22:35:35.522Z,26.70
2018-12-30T22:38:05.173Z,26.53
2018-12-30T22:40:34.483Z,30.70
2018-12-30T22:43:03.702Z,22.73
2018-12-30T22:45:33.244Z,22.40
2018-12-30T22:48:02.456Z,23.17
2018-12-30T22:50:31.829Z,20.33
2018-12-30T22:53:02.766Z,25.00
2018-12-30T22:55:32.270Z,25.90
2018-12-30T22:58:01.541Z,20.40
2018-12-30T23:00:55.678Z,27.77
2018-12-30T23:03:24.928Z,24.50
2018-12-30T23:05:54.461Z,25.50
2018-12-30T23:08:23.858Z,24.90
2018-12-30T23:10:54.235Z,32.20
2018-12-30T23:13:25.853Z,22.63
2018-12-30T23:15:55.178Z,29.13
2018-12-30T23:18:24.431Z,28.97
2018-12-30T23:20:53.551Z,27.48
2018-12-30T23:23:23.395Z,31.48
2018-12-30T23:25:52.662Z,27.03
2018-12-30T23:28:22.594Z,27.50
2018-12-30T23:30:51.878Z,26.00
2018-12-30T23:33:22.000Z,30.93
2018-12-30T23:35:51.286Z,33.05
2018-12-30T23:38:21.087Z,32.87
2018-12-30T23:40:50.408Z,32.03
2018-12-30T23:43:20.340Z,29.20
2018-12-30T23:45:49.983Z,30.83
2018-12-30T23:48:19.868Z,29.75
2018-12-30T23:50:49.161Z,27.67
2018-12-30T23:53:18.756Z,29.77
2018-12-30T23:55:48.048Z,31.20
2018-12-30T23:58:21.882Z,27.35
